createdAt,value
2023-07-06T00:00:18.234Z,98975.81
2023-07-06T00:02:45.916Z,98974.06
2023-07-06T00:05:13.350Z,98971.72
2023-07-06T00:07:40.943Z,98978.03
2023-07-06T00:10:08.905Z,98973.00
2023-07-06T00:12:36.350Z,98973.03
2023-07-06T00:15:05.391Z,98980.16
2023-07-06T00:17:33.358Z,98974.38
2023-07-06T00:20:00.848Z,98972.28
2023-07-06T00:22:28.336Z,98977.63
2023-07-06T00:24:58.830Z,98981.25
2023-07-06T00:27:26.993Z,98983.09
2023-07-06T00:30:13.033Z,98981.22
2023-07-06T00:32:40.715Z,98982.81
2023-07-06T00:35:11.333Z,98976.69
2023-07-06T00:37:39.723Z,98977.44
2023-07-06T00:40:09.482Z,98979.72
2023-07-06T00:42:39.090Z,98982.09
2023-07-06T00:45:11.741Z,98982.50
2023-07-06T00:47:50.850Z,98982.03
2023-07-06T00:50:25.078Z,98982.63
2023-07-06T00:53:00.535Z,98979.87
2023-07-06T00:55:31.214Z,98984.63
2023-07-06T00:58:04.760Z,98981.59
2023-07-06T01:00:32.437Z,98991.12
2023-07-06T01:03:02.549Z,98985.34
2023-07-06T01:05:31.658Z,98992.75
2023-07-06T01:08:08.371Z,98992.12
2023-07-06T01:10:35.867Z,98988.88
2023-07-06T01:13:05.682Z,98988.59
2023-07-06T01:15:39.206Z,98973.97
2023-07-06T01:18:21.574Z,98979.72
2023-07-06T01:20:57.247Z,98975.59
2023-07-06T01:23:41.904Z,98985.53
2023-07-06T01:26:14.621Z,98982.03
2023-07-06T01:29:04.860Z,98975.34
2023-07-06T01:31:43.763Z,98971.94
2023-07-06T01:34:29.338Z,98962.28
2023-07-06T01:37:06.983Z,98969.63
2023-07-06T01:39:34.714Z,98968.34
2023-07-06T01:42:11.302Z,98972.66
2023-07-06T01:44:41.755Z,98971.69
2023-07-06T01:47:09.980Z,98957.78
2023-07-06T01:49:37.725Z,98951.31
2023-07-06T01:52:26.078Z,98955.13
2023-07-06T01:55:01.917Z,98957.31
2023-07-06T01:57:46.660Z,98959.94
2023-07-06T02:00:24.147Z,98958.09
2023-07-06T02:02:54.952Z,98960.69
2023-07-06T02:05:23.284Z,98963.44
2023-07-06T02:07:50.927Z,98961.09
2023-07-06T02:10:20.122Z,98965.19
2023-07-06T02:12:50.330Z,98967.13
2023-07-06T02:15:21.668Z,98956.59
2023-07-06T02:17:56.571Z,98960.22
2023-07-06T02:20:24.535Z,98961.00
2023-07-06T02:22:52.966Z,98968.84
2023-07-06T02:25:22.473Z,98975.41
2023-07-06T02:27:50.300Z,98971.34
2023-07-06T02:30:18.509Z,98978.16
2023-07-06T02:32:47.456Z,98974.81
2023-07-06T02:35:15.001Z,98981.81
2023-07-06T02:37:43.134Z,98984.56
2023-07-06T02:40:12.157Z,98980.37
2023-07-06T02:42:43.275Z,98984.16
2023-07-06T02:45:11.588Z,98993.47
2023-07-06T02:47:39.426Z,98994.47
2023-07-06T02:50:12.626Z,98995.81
2023-07-06T02:52:43.801Z,98996.81
2023-07-06T02:55:11.500Z,98997.66
2023-07-06T02:57:41.953Z,98987.50
2023-07-06T03:00:15.865Z,98997.13
2023-07-06T03:02:44.472Z,98993.66
2023-07-06T03:05:12.912Z,98996.78
2023-07-06T03:07:41.078Z,98991.66
2023-07-06T03:10:10.132Z,98994.28
2023-07-06T03:12:38.540Z,99000.34
2023-07-06T03:15:07.316Z,98997.25
2023-07-06T03:17:34.761Z,99002.81
2023-07-06T03:20:04.364Z,98993.56
2023-07-06T03:22:32.455Z,99003.34
2023-07-06T03:25:20.643Z,99004.47
2023-07-06T03:27:48.630Z,99006.78
2023-07-06T03:30:19.818Z,98995.53
2023-07-06T03:32:47.483Z,98998.66
2023-07-06T03:35:15.700Z,99004.84
2023-07-06T03:37:44.121Z,99004.47
2023-07-06T03:40:12.349Z,99009.50
2023-07-06T03:42:41.510Z,99019.28
2023-07-06T03:45:09.794Z,99022.75
2023-07-06T03:47:39.033Z,99028.72
2023-07-06T03:50:10.862Z,99024.06
2023-07-06T03:52:41.154Z,99035.09
2023-07-06T03:55:14.571Z,99035.69
2023-07-06T03:57:54.716Z,99046.78
2023-07-06T04:00:30.237Z,99048.00
2023-07-06T04:02:59.371Z,99048.59
2023-07-06T04:05:33.785Z,99048.34
2023-07-06T04:08:13.751Z,99055.59
2023-07-06T04:10:41.999Z,99053.06
2023-07-06T04:13:11.271Z,99066.47
2023-07-06T04:15:41.294Z,99068.69
2023-07-06T04:18:09.022Z,99079.09
2023-07-06T04:20:36.956Z,99071.44
2023-07-06T04:23:05.378Z,99068.88
2023-07-06T04:25:34.866Z,99072.66
2023-07-06T04:28:12.106Z,99062.78
2023-07-06T04:30:46.801Z,99081.19
2023-07-06T04:33:20.351Z,99079.09
2023-07-06T04:35:52.822Z,99080.72
2023-07-06T04:38:26.279Z,99079.25
2023-07-06T04:40:53.905Z,99078.16
2023-07-06T04:43:21.915Z,99073.44
2023-07-06T04:45:49.549Z,99088.06
2023-07-06T04:48:18.142Z,99083.94
2023-07-06T04:50:47.025Z,99088.56
2023-07-06T04:53:14.928Z,99085.91
2023-07-06T04:55:42.310Z,99090.66
2023-07-06T04:58:10.589Z,99094.09
2023-07-06T05:00:40.828Z,99090.66
2023-07-06T05:03:09.139Z,99091.94
2023-07-06T05:05:41.710Z,99094.09
2023-07-06T05:08:11.515Z,99086.03
2023-07-06T05:10:39.386Z,99086.44
2023-07-06T05:13:07.984Z,99093.50
2023-07-06T05:15:37.461Z,99097.69
2023-07-06T05:18:07.485Z,99102.19
2023-07-06T05:20:35.020Z,99093.66
2023-07-06T05:23:04.595Z,99094.41
2023-07-06T05:25:32.256Z,99092.94
2023-07-06T05:27:59.642Z,99106.75
2023-07-06T05:30:28.411Z,99109.44
2023-07-06T05:32:56.747Z,99123.09
2023-07-06T05:35:24.849Z,99123.87
2023-07-06T05:37:53.223Z,99126.72
2023-07-06T05:40:21.131Z,99136.66
2023-07-06T05:42:48.599Z,99145.00
2023-07-06T05:45:16.128Z,99140.69
2023-07-06T05:47:44.041Z,99136.69
2023-07-06T05:50:11.724Z,99120.62
2023-07-06T05:52:43.064Z,99112.16
2023-07-06T05:55:10.803Z,99106.12
2023-07-06T05:57:38.248Z,99092.97
2023-07-06T06:00:11.715Z,99086.37
2023-07-06T06:02:40.964Z,99090.25
2023-07-06T06:05:09.307Z,99100.50
2023-07-06T06:07:36.875Z,99104.84
2023-07-06T06:10:04.898Z,99119.28
2023-07-06T06:12:34.411Z,99123.56
2023-07-06T06:15:02.627Z,99123.56
2023-07-06T06:17:31.969Z,99120.56
2023-07-06T06:19:59.440Z,99124.87
2023-07-06T06:22:27.094Z,99124.44
2023-07-06T06:24:54.841Z,99124.28
2023-07-06T06:27:23.657Z,99118.84
2023-07-06T06:29:51.051Z,99114.44
2023-07-06T06:32:18.777Z,99124.03
2023-07-06T06:34:46.856Z,99114.56
2023-07-06T06:37:14.276Z,99127.16
2023-07-06T06:39:42.027Z,99123.84
2023-07-06T06:42:10.727Z,99132.72
2023-07-06T06:44:41.456Z,99133.59
2023-07-06T06:47:09.232Z,99124.19
2023-07-06T06:49:36.685Z,99130.41
2023-07-06T06:52:05.778Z,99131.87
2023-07-06T06:54:34.588Z,99122.81
2023-07-06T06:57:04.251Z,99133.59
2023-07-06T06:59:34.155Z,99139.19
2023-07-06T07:02:04.067Z,99135.62
2023-07-06T07:04:32.556Z,99145.31
2023-07-06T07:07:04.850Z,99145.59
2023-07-06T07:09:33.578Z,99149.16
2023-07-06T07:12:01.609Z,99146.09
2023-07-06T07:14:31.155Z,99134.00
2023-07-06T07:16:58.984Z,99132.53
2023-07-06T07:19:29.583Z,99133.06
2023-07-06T07:22:01.732Z,99140.03
2023-07-06T07:24:33.669Z,99143.12
2023-07-06T07:27:01.699Z,99140.34
2023-07-06T07:29:30.129Z,99140.88
2023-07-06T07:31:57.863Z,99137.47
2023-07-06T07:34:28.451Z,99133.16
2023-07-06T07:36:55.869Z,99140.75
2023-07-06T07:39:24.304Z,99139.97
2023-07-06T07:41:53.803Z,99135.34
2023-07-06T07:44:22.681Z,99136.84
2023-07-06T07:46:50.377Z,99134.16
2023-07-06T07:49:19.014Z,99137.84
2023-07-06T07:51:47.354Z,99130.72
2023-07-06T07:54:15.046Z,99140.97
2023-07-06T07:56:44.082Z,99135.62
2023-07-06T07:59:11.790Z,99126.69
2023-07-06T08:01:39.825Z,99121.47
2023-07-06T08:04:07.947Z,99126.97
2023-07-06T08:06:35.385Z,99125.16
2023-07-06T08:09:04.516Z,99122.06
2023-07-06T08:11:32.983Z,99120.34
2023-07-06T08:14:00.543Z,99129.69
2023-07-06T08:16:29.915Z,99119.81
2023-07-06T08:19:04.263Z,99123.00
2023-07-06T08:22:04.597Z,99121.44
2023-07-06T08:24:33.298Z,99125.37
2023-07-06T08:27:00.835Z,99127.53
2023-07-06T08:29:28.278Z,99123.41
2023-07-06T08:31:57.545Z,99138.19
2023-07-06T08:34:27.718Z,99143.44
2023-07-06T08:36:56.208Z,99135.97
2023-07-06T08:39:26.389Z,99144.22
2023-07-06T08:41:56.370Z,99139.09
2023-07-06T08:44:25.693Z,99139.53
2023-07-06T08:46:56.478Z,99134.78
2023-07-06T08:49:33.559Z,99132.66
2023-07-06T08:52:06.695Z,99137.63
2023-07-06T08:54:40.926Z,99136.41
2023-07-06T08:57:17.215Z,99126.22
2023-07-06T08:59:46.981Z,99124.00
2023-07-06T09:02:18.589Z,99133.75
2023-07-06T09:04:51.616Z,99123.97
2023-07-06T09:07:25.607Z,99119.09
2023-07-06T09:09:59.141Z,99125.34
2023-07-06T09:12:37.546Z,99123.53
2023-07-06T09:15:05.535Z,99133.31
2023-07-06T09:17:33.833Z,99129.22
2023-07-06T09:20:04.795Z,99126.81
2023-07-06T09:22:32.191Z,99137.56
2023-07-06T09:25:03.028Z,99136.88
2023-07-06T09:27:30.491Z,99128.88
2023-07-06T09:30:06.549Z,99130.53
2023-07-06T09:32:35.866Z,99126.31
2023-07-06T09:35:10.843Z,99126.53
2023-07-06T09:37:46.817Z,99135.66
2023-07-06T09:43:04.124Z,99134.22
2023-07-06T09:45:32.385Z,99139.81
2023-07-06T09:48:38.896Z,99143.12
2023-07-06T09:51:10.652Z,99142.53
2023-07-06T09:53:49.853Z,99131.63
2023-07-06T09:56:17.710Z,99133.56
2023-07-06T09:58:47.469Z,99131.13
2023-07-06T10:01:36.606Z,99138.25
2023-07-06T10:04:22.786Z,99137.22
2023-07-06T10:07:02.764Z,99132.78
2023-07-06T10:09:35.503Z,99133.41
2023-07-06T10:12:18.994Z,99138.84
2023-07-06T10:14:51.134Z,99132.41
2023-07-06T10:17:44.268Z,99130.97
2023-07-06T10:20:19.073Z,99132.25
2023-07-06T10:23:05.737Z,99130.34
2023-07-06T10:25:37.163Z,99125.44
2023-07-06T10:28:11.989Z,99124.78
2023-07-06T10:30:47.101Z,99120.53
2023-07-06T10:33:38.916Z,99116.13
2023-07-06T10:36:11.679Z,99111.41
2023-07-06T10:38:39.113Z,99111.91
2023-07-06T10:41:12.699Z,99099.28
2023-07-06T10:43:42.109Z,99119.06
2023-07-06T10:46:33.047Z,99124.09
2023-07-06T10:49:21.244Z,99120.44
2023-07-06T10:51:54.507Z,99123.75
2023-07-06T10:54:21.901Z,99130.63
2023-07-06T10:57:02.755Z,99128.72
2023-07-06T10:59:42.826Z,99144.91
2023-07-06T11:02:34.022Z,99124.87
2023-07-06T11:05:16.627Z,99134.28
2023-07-06T11:07:47.032Z,99130.84
2023-07-06T11:10:14.375Z,99123.13
2023-07-06T11:12:56.123Z,99123.78
2023-07-06T11:15:46.421Z,99114.28
2023-07-06T11:18:33.838Z,99119.09
2023-07-06T11:21:10.023Z,99125.37
2023-07-06T11:24:08.235Z,99107.53
2023-07-06T11:27:05.371Z,99118.13
2023-07-06T11:29:35.169Z,99102.94
2023-07-06T11:32:20.662Z,99097.66
2023-07-06T11:35:22.654Z,99105.19
2023-07-06T11:38:14.975Z,99105.31
2023-07-06T11:41:13.384Z,99103.97
2023-07-06T11:44:00.879Z,99111.38
2023-07-06T11:46:43.519Z,99115.06
2023-07-06T11:49:44.454Z,99113.22
2023-07-06T11:52:26.390Z,99101.69
2023-07-06T11:55:06.637Z,99100.44
2023-07-06T11:57:46.171Z,99101.91
2023-07-06T12:00:44.373Z,99104.28
2023-07-06T12:03:14.111Z,99108.69
2023-07-06T12:05:46.045Z,99099.72
2023-07-06T12:08:31.799Z,99090.00
2023-07-06T12:11:03.976Z,99093.87
2023-07-06T12:13:35.909Z,99095.84
2023-07-06T12:16:14.546Z,99088.97
2023-07-06T12:18:46.152Z,99098.81
2023-07-06T12:21:36.571Z,99093.56
2023-07-06T12:24:06.656Z,99082.97
2023-07-06T12:26:36.168Z,99077.56
2023-07-06T12:29:04.121Z,99074.34
2023-07-06T12:31:32.222Z,99077.81
2023-07-06T12:34:01.298Z,99075.06
2023-07-06T12:36:34.757Z,99068.53
2023-07-06T12:39:05.218Z,99066.06
2023-07-06T12:41:38.361Z,99063.97
2023-07-06T12:44:07.173Z,99069.44
2023-07-06T12:46:35.894Z,99065.63
2023-07-06T12:49:06.997Z,99084.97
2023-07-06T12:51:37.718Z,99072.31
2023-07-06T12:54:06.719Z,99069.38
2023-07-06T12:56:35.532Z,99069.03
2023-07-06T12:59:04.663Z,99065.25
2023-07-06T13:01:34.308Z,99069.69
2023-07-06T13:04:09.523Z,99068.53
2023-07-06T13:06:42.033Z,99061.94
2023-07-06T13:09:23.141Z,99060.75
2023-07-06T13:11:54.082Z,99060.22
2023-07-06T13:14:24.785Z,99059.78
2023-07-06T13:16:57.652Z,99054.97
2023-07-06T13:19:25.780Z,99059.59
2023-07-06T13:21:56.734Z,99058.28
2023-07-06T13:24:24.520Z,99049.41
2023-07-06T13:26:52.393Z,99059.94
2023-07-06T13:29:20.141Z,99058.59
2023-07-06T13:31:55.253Z,99054.34
2023-07-06T13:34:24.999Z,99063.56
2023-07-06T13:36:54.521Z,99058.47
2023-07-06T13:39:21.976Z,99051.56
2023-07-06T13:41:50.933Z,99055.97
2023-07-06T13:44:18.674Z,99052.34
2023-07-06T13:46:48.374Z,99053.25
2023-07-06T13:49:17.573Z,99045.22
2023-07-06T13:51:45.137Z,99043.38
2023-07-06T13:54:16.459Z,99056.72
2023-07-06T13:56:49.702Z,99044.81
2023-07-06T13:59:17.613Z,99047.72
2023-07-06T14:01:48.429Z,99048.87
2023-07-06T14:04:19.839Z,99060.56
2023-07-06T14:06:47.241Z,99057.03
2023-07-06T14:09:14.775Z,99061.81
2023-07-06T14:11:42.600Z,99063.53
2023-07-06T14:14:10.033Z,99059.41
2023-07-06T14:16:37.788Z,99064.00
2023-07-06T14:19:07.584Z,99059.38
2023-07-06T14:21:35.222Z,99060.09
2023-07-06T14:24:03.087Z,99064.09
2023-07-06T14:26:31.247Z,99073.09
2023-07-06T14:28:58.723Z,99076.88
2023-07-06T14:31:28.686Z,99071.66
2023-07-06T14:33:56.586Z,99068.03
2023-07-06T14:36:23.967Z,99069.44
2023-07-06T14:38:51.389Z,99072.09
2023-07-06T14:41:19.069Z,99071.13
2023-07-06T14:43:46.489Z,99067.56
2023-07-06T14:46:13.981Z,99071.44
2023-07-06T14:48:41.779Z,99074.94
2023-07-06T14:51:11.039Z,99067.78
2023-07-06T14:53:40.250Z,99069.00
2023-07-06T14:56:09.554Z,99067.12
2023-07-06T14:58:39.271Z,99062.44
2023-07-06T15:01:07.749Z,99052.50
2023-07-06T15:03:35.695Z,99059.56
2023-07-06T15:06:08.139Z,99062.41
2023-07-06T15:08:36.564Z,99058.16
2023-07-06T15:11:03.996Z,99050.63
2023-07-06T15:13:31.431Z,99050.03
2023-07-06T15:16:00.971Z,99041.84
2023-07-06T15:18:28.646Z,99051.06
2023-07-06T15:21:16.875Z,99050.38
2023-07-06T15:23:44.599Z,99051.06
2023-07-06T15:26:12.353Z,99041.84
2023-07-06T15:28:40.271Z,99041.41
2023-07-06T15:31:09.811Z,99037.16
2023-07-06T15:33:38.841Z,99036.81
2023-07-06T15:36:06.380Z,99038.47
2023-07-06T15:38:34.040Z,99044.97
2023-07-06T15:41:01.529Z,99038.41
2023-07-06T15:43:28.936Z,99047.81
2023-07-06T15:45:57.661Z,99039.75
2023-07-06T15:48:25.345Z,99040.97
2023-07-06T15:50:53.623Z,99051.16
2023-07-06T15:53:22.650Z,99054.38
2023-07-06T15:55:57.367Z,99056.66
2023-07-06T15:58:25.360Z,99057.03
2023-07-06T16:00:54.353Z,99052.84
2023-07-06T16:03:23.470Z,99060.19
2023-07-06T16:05:51.208Z,99056.69
2023-07-06T16:08:20.641Z,99058.34
2023-07-06T16:10:51.347Z,99058.56
2023-07-06T16:13:19.099Z,99054.25
2023-07-06T16:15:46.657Z,99056.16
2023-07-06T16:18:14.467Z,99053.25
2023-07-06T16:20:51.061Z,99051.00
2023-07-06T16:23:18.830Z,99049.19
2023-07-06T16:25:46.475Z,99060.03
2023-07-06T16:28:13.931Z,99058.84
2023-07-06T16:30:41.742Z,99066.28
2023-07-06T16:33:09.301Z,99062.16
2023-07-06T16:35:40.312Z,99061.13
2023-07-06T16:38:09.227Z,99074.00
2023-07-06T16:40:36.652Z,99065.00
2023-07-06T16:43:04.091Z,99056.84
2023-07-06T16:45:33.820Z,99066.97
2023-07-06T16:48:01.372Z,99062.06
2023-07-06T16:50:28.985Z,99074.16
2023-07-06T16:52:56.724Z,99075.53
2023-07-06T16:55:24.228Z,99067.22
2023-07-06T16:57:51.685Z,99075.97
2023-07-06T17:00:19.420Z,99071.75
2023-07-06T17:02:47.225Z,99073.66
2023-07-06T17:05:14.844Z,99081.81
2023-07-06T17:07:42.527Z,99086.37
2023-07-06T17:10:10.319Z,99098.19
2023-07-06T17:12:37.933Z,99086.34
2023-07-06T17:15:06.130Z,99090.12
2023-07-06T17:17:33.902Z,99091.25
2023-07-06T17:20:01.387Z,99097.72
2023-07-06T17:22:29.130Z,99099.28
2023-07-06T17:24:56.651Z,99105.09
2023-07-06T17:27:24.134Z,99098.31
2023-07-06T17:29:52.172Z,99111.44
2023-07-06T17:32:19.999Z,99111.53
2023-07-06T17:34:48.217Z,99123.53
2023-07-06T17:37:18.225Z,99117.97
2023-07-06T17:39:46.141Z,99124.94
2023-07-06T17:42:15.128Z,99130.09
2023-07-06T17:44:45.351Z,99130.75
2023-07-06T17:47:13.234Z,99139.78
2023-07-06T17:49:41.194Z,99138.47
2023-07-06T17:52:09.999Z,99147.03
2023-07-06T17:54:37.706Z,99146.75
2023-07-06T17:57:05.869Z,99157.09
2023-07-06T17:59:35.072Z,99155.72
2023-07-06T18:02:02.750Z,99154.22
2023-07-06T18:04:31.113Z,99151.66
2023-07-06T18:06:59.281Z,99161.19
2023-07-06T18:09:29.664Z,99160.28
2023-07-06T18:11:59.590Z,99160.75
2023-07-06T18:14:27.615Z,99167.47
2023-07-06T18:16:55.801Z,99162.09
2023-07-06T18:19:24.224Z,99156.69
2023-07-06T18:21:52.086Z,99167.56
2023-07-06T18:24:19.530Z,99162.31
2023-07-06T18:26:47.315Z,99161.78
2023-07-06T18:29:14.754Z,99173.72
2023-07-06T18:31:42.203Z,99174.38
2023-07-06T18:34:09.935Z,99167.63
2023-07-06T18:36:37.401Z,99177.78
2023-07-06T18:39:07.316Z,99173.31
2023-07-06T18:41:35.207Z,99169.94
2023-07-06T18:44:02.895Z,99170.41
2023-07-06T18:46:30.447Z,99176.75
2023-07-06T18:48:58.441Z,99183.72
2023-07-06T18:51:26.202Z,99182.66
2023-07-06T18:53:53.820Z,99188.56
2023-07-06T18:56:21.986Z,99202.78
2023-07-06T18:58:50.865Z,99203.34
2023-07-06T19:01:18.367Z,99209.03
2023-07-06T19:03:46.997Z,99203.25
2023-07-06T19:06:18.468Z,99204.66
2023-07-06T19:08:48.380Z,99215.84
2023-07-06T19:11:18.156Z,99216.13
2023-07-06T19:13:46.811Z,99210.31
2023-07-06T19:16:17.808Z,99207.75
2023-07-06T19:18:46.345Z,99219.00
2023-07-06T19:21:14.659Z,99218.84
2023-07-06T19:23:43.370Z,99222.75
2023-07-06T19:26:10.958Z,99225.59
2023-07-06T19:28:38.496Z,99222.03
2023-07-06T19:31:07.125Z,99220.66
2023-07-06T19:33:35.720Z,99223.19
2023-07-06T19:36:24.215Z,99221.03
2023-07-06T19:38:53.436Z,99220.03
2023-07-06T19:41:21.481Z,99219.22
2023-07-06T19:43:52.385Z,99233.00
2023-07-06T19:46:22.171Z,99231.69
2023-07-06T19:48:50.660Z,99225.25
2023-07-06T19:51:21.763Z,99228.25
2023-07-06T19:53:53.008Z,99228.38
2023-07-06T19:56:22.335Z,99235.81
2023-07-06T19:58:54.045Z,99233.22
2023-07-06T20:01:22.220Z,99233.56
2023-07-06T20:03:50.212Z,99237.41
2023-07-06T20:06:19.928Z,99235.06
2023-07-06T20:08:48.616Z,99229.94
2023-07-06T20:11:16.581Z,99241.72
2023-07-06T20:13:44.611Z,99240.06
2023-07-06T20:16:13.041Z,99246.97
2023-07-06T20:18:42.655Z,99249.75
2023-07-06T20:21:10.582Z,99252.44
2023-07-06T20:23:39.047Z,99250.25
2023-07-06T20:26:08.419Z,99255.41
2023-07-06T20:28:36.654Z,99256.13
2023-07-06T20:31:06.427Z,99258.59
2023-07-06T20:33:36.547Z,99251.25
2023-07-06T20:36:07.148Z,99256.66
2023-07-06T20:38:36.236Z,99248.53
2023-07-06T20:41:04.853Z,99251.12
2023-07-06T20:43:32.544Z,99266.50
2023-07-06T20:46:01.281Z,99268.03
2023-07-06T20:48:29.237Z,99269.91
2023-07-06T20:50:58.317Z,99262.22
2023-07-06T20:53:27.499Z,99263.22
2023-07-06T20:55:55.359Z,99265.97
2023-07-06T20:58:23.172Z,99272.44
2023-07-06T21:00:51.336Z,99277.25
2023-07-06T21:03:18.755Z,99274.06
2023-07-06T21:05:50.308Z,99273.69
2023-07-06T21:08:18.270Z,99277.09
2023-07-06T21:10:45.714Z,99279.81
2023-07-06T21:13:13.124Z,99289.44
2023-07-06T21:15:40.795Z,99284.28
2023-07-06T21:18:08.264Z,99284.75
2023-07-06T21:20:36.876Z,99285.75
2023-07-06T21:23:05.178Z,99292.25
2023-07-06T21:25:32.608Z,99297.34
2023-07-06T21:28:00.039Z,99292.00
2023-07-06T21:30:27.816Z,99296.50
2023-07-06T21:32:55.275Z,99293.06
2023-07-06T21:35:22.728Z,99295.72
2023-07-06T21:37:52.007Z,99299.59
2023-07-06T21:40:19.419Z,99306.09
2023-07-06T21:42:46.807Z,99312.44
2023-07-06T21:45:14.513Z,99306.97
2023-07-06T21:47:42.153Z,99306.00
2023-07-06T21:50:10.107Z,99311.84
2023-07-06T21:52:37.781Z,99309.25
2023-07-06T21:55:05.582Z,99306.38
2023-07-06T21:57:32.944Z,99305.09
2023-07-06T22:00:00.659Z,99301.56
2023-07-06T22:02:28.226Z,99301.88
2023-07-06T22:04:55.924Z,99300.06
2023-07-06T22:07:23.358Z,99303.97
2023-07-06T22:09:50.758Z,99300.06
2023-07-06T22:12:18.439Z,99298.47
2023-07-06T22:14:45.922Z,99292.47
2023-07-06T22:17:13.307Z,99292.25
2023-07-06T22:19:41.013Z,99292.69
2023-07-06T22:22:08.418Z,99284.28
2023-07-06T22:24:35.813Z,99287.56
2023-07-06T22:27:03.704Z,99285.91
2023-07-06T22:29:31.119Z,99290.19
2023-07-06T22:31:58.700Z,99285.22
2023-07-06T22:34:26.448Z,99286.13
2023-07-06T22:36:53.862Z,99288.78
2023-07-06T22:39:21.266Z,99281.31
2023-07-06T22:41:48.938Z,99289.59
2023-07-06T22:44:16.384Z,99286.84
2023-07-06T22:46:43.830Z,99280.88
2023-07-06T22:49:11.478Z,99292.25
2023-07-06T22:51:40.629Z,99286.44
2023-07-06T22:54:08.812Z,99284.44
2023-07-06T22:56:36.453Z,99296.44
2023-07-06T22:59:03.810Z,99285.78
2023-07-06T23:01:31.288Z,99287.69
2023-07-06T23:04:00.203Z,99296.75
2023-07-06T23:06:28.795Z,99296.25
2023-07-06T23:08:58.716Z,99295.28
2023-07-06T23:11:26.464Z,99300.06
2023-07-06T23:13:55.575Z,99299.09
2023-07-06T23:16:26.411Z,99298.38
2023-07-06T23:18:55.426Z,99303.09
2023-07-06T23:21:24.269Z,99304.19
2023-07-06T23:23:51.996Z,99309.56
2023-07-06T23:26:24.659Z,99303.75
2023-07-06T23:28:52.869Z,99310.66
2023-07-06T23:31:29.179Z,99306.50
2023-07-06T23:34:03.348Z,99305.84
2023-07-06T23:36:31.068Z,99306.47
2023-07-06T23:39:00.303Z,99310.28
2023-07-06T23:41:27.993Z,99305.81
2023-07-06T23:43:56.743Z,99302.72
2023-07-06T23:46:24.251Z,99305.56
2023-07-06T23:48:53.658Z,99311.59
2023-07-06T23:51:40.055Z,99311.69
2023-07-06T23:54:07.523Z,99318.34
2023-07-06T23:56:35.254Z,99312.56
2023-07-06T23:59:02.954Z,99313.75
